sensor_id;sensor_type;location;lat;lon;timestamp;P1;durP1;ratioP1;P2;durP2;ratioP2
4309;SDS011;2168;53.576;9.980;2022-12-07T00:01:39;15.47;;;10.80;;
4309;SDS011;2168;53.576;9.980;2022-12-07T00:04:06;19.10;;;10.70;;
4309;SDS011;2168;53.576;9.980;2022-12-07T00:06:35;15.20;;;10.63;;
4309;SDS011;2168;53.576;9.980;2022-12-07T00:09:01;15.30;;;11.50;;
4309;SDS011;2168;53.576;9.980;2022-12-07T00:11:26;15.17;;;9.93;;
4309;SDS011;2168;53.576;9.980;2022-12-07T00:13:53;15.07;;;11.50;;
4309;SDS011;2168;53.576;9.980;2022-12-07T00:16:19;13.97;;;10.73;;
4309;SDS011;2168;53.576;9.980;2022-12-07T00:18:45;15.50;;;11.10;;
4309;SDS011;2168;53.576;9.980;2022-12-07T00:21:15;14.57;;;11.33;;
4309;SDS011;2168;53.576;9.980;2022-12-07T00:23:41;15.70;;;11.40;;
4309;SDS011;2168;53.576;9.980;2022-12-07T00:26:07;15.67;;;10.97;;
4309;SDS011;2168;53.576;9.980;2022-12-07T00:28:33;20.40;;;11.87;;
4309;SDS011;2168;53.576;9.980;2022-12-07T00:31:05;14.53;;;11.20;;
4309;SDS011;2168;53.576;9.980;2022-12-07T00:33:31;17.50;;;9.90;;
4309;SDS011;2168;53.576;9.980;2022-12-07T00:35:57;12.90;;;9.30;;
4309;SDS011;2168;53.576;9.980;2022-12-07T00:38:22;12.00;;;9.77;;
4309;SDS011;2168;53.576;9.980;2022-12-07T00:40:56;19.33;;;10.97;;
4309;SDS011;2168;53.576;9.980;2022-12-07T00:43:22;12.33;;;9.80;;
4309;SDS011;2168;53.576;9.980;2022-12-07T00:45:47;14.60;;;10.63;;
4309;SDS011;2168;53.576;9.980;2022-12-07T00:48:12;13.87;;;9.70;;
4309;SDS011;2168;53.576;9.980;2022-12-07T00:50:37;14.03;;;10.37;;
4309;SDS011;2168;53.576;9.980;2022-12-07T00:53:02;14.67;;;10.60;;
4309;SDS011;2168;53.576;9.980;2022-12-07T00:55:28;11.33;;;8.90;;
4309;SDS011;2168;53.576;9.980;2022-12-07T00:57:53;17.30;;;9.17;;
4309;SDS011;2168;53.576;9.980;2022-12-07T01:00:18;13.27;;;9.47;;
4309;SDS011;2168;53.576;9.980;2022-12-07T01:02:43;14.00;;;8.90;;
4309;SDS011;2168;53.576;9.980;2022-12-07T01:05:09;14.00;;;8.93;;
4309;SDS011;2168;53.576;9.980;2022-12-07T01:07:34;11.67;;;9.10;;
4309;SDS011;2168;53.576;9.980;2022-12-07T01:09:59;15.47;;;8.63;;
4309;SDS011;2168;53.576;9.980;2022-12-07T01:12:24;14.07;;;9.10;;
4309;SDS011;2168;53.576;9.980;2022-12-07T01:14:49;10.90;;;8.47;;
4309;SDS011;2168;53.576;9.980;2022-12-07T01:17:15;12.70;;;8.90;;
4309;SDS011;2168;53.576;9.980;2022-12-07T01:19:40;10.67;;;7.53;;
4309;SDS011;2168;53.576;9.980;2022-12-07T01:22:05;10.30;;;7.77;;
4309;SDS011;2168;53.576;9.980;2022-12-07T01:24:30;10.63;;;8.17;;
4309;SDS011;2168;53.576;9.980;2022-12-07T01:26:56;11.50;;;7.80;;
4309;SDS011;2168;53.576;9.980;2022-12-07T01:29:21;12.13;;;8.47;;
4309;SDS011;2168;53.576;9.980;2022-12-07T01:31:48;10.30;;;7.70;;
4309;SDS011;2168;53.576;9.980;2022-12-07T01:34:13;11.30;;;7.60;;
4309;SDS011;2168;53.576;9.980;2022-12-07T01:36:38;13.23;;;8.87;;
4309;SDS011;2168;53.576;9.980;2022-12-07T01:39:04;9.70;;;7.87;;
4309;SDS011;2168;53.576;9.980;2022-12-07T01:41:31;13.80;;;8.40;;
4309;SDS011;2168;53.576;9.980;2022-12-07T01:46:41;18.47;;;8.73;;
4309;SDS011;2168;53.576;9.980;2022-12-07T01:49:08;11.87;;;8.83;;
4309;SDS011;2168;53.576;9.980;2022-12-07T01:51:35;13.83;;;9.40;;
4309;SDS011;2168;53.576;9.980;2022-12-07T01:54:02;13.20;;;8.97;;
4309;SDS011;2168;53.576;9.980;2022-12-07T01:56:27;14.63;;;8.63;;
4309;SDS011;2168;53.576;9.980;2022-12-07T01:58:53;11.47;;;7.80;;
4309;SDS011;2168;53.576;9.980;2022-12-07T02:01:19;9.60;;;7.70;;
4309;SDS011;2168;53.576;9.980;2022-12-07T02:03:45;14.20;;;7.90;;
4309;SDS011;2168;53.576;9.980;2022-12-07T02:06:11;13.60;;;8.50;;
4309;SDS011;2168;53.576;9.980;2022-12-07T02:08:37;10.40;;;7.90;;
4309;SDS011;2168;53.576;9.980;2022-12-07T02:11:03;7.83;;;6.63;;
4309;SDS011;2168;53.576;9.980;2022-12-07T02:13:30;8.83;;;6.93;;
4309;SDS011;2168;53.576;9.980;2022-12-07T02:16:04;14.10;;;6.37;;
4309;SDS011;2168;53.576;9.980;2022-12-07T02:18:37;9.13;;;6.30;;
4309;SDS011;2168;53.576;9.980;2022-12-07T02:23:34;10.73;;;6.50;;
4309;SDS011;2168;53.576;9.980;2022-12-07T02:30:54;9.30;;;6.23;;
4309;SDS011;2168;53.576;9.980;2022-12-07T02:33:24;8.73;;;4.60;;
4309;SDS011;2168;53.576;9.980;2022-12-07T02:35:53;8.37;;;5.00;;
4309;SDS011;2168;53.576;9.980;2022-12-07T02:38:24;8.93;;;5.37;;
4309;SDS011;2168;53.576;9.980;2022-12-07T02:40:53;5.90;;;4.10;;
4309;SDS011;2168;53.576;9.980;2022-12-07T02:43:20;5.77;;;4.13;;
4309;SDS011;2168;53.576;9.980;2022-12-07T02:45:48;4.37;;;3.53;;
4309;SDS011;2168;53.576;9.980;2022-12-07T02:48:15;8.27;;;4.10;;
4309;SDS011;2168;53.576;9.980;2022-12-07T02:50:59;7.93;;;3.63;;
4309;SDS011;2168;53.576;9.980;2022-12-07T02:53:35;3.07;;;2.70;;
4309;SDS011;2168;53.576;9.980;2022-12-07T02:56:35;8.57;;;3.03;;
4309;SDS011;2168;53.576;9.980;2022-12-07T02:59:09;8.40;;;3.50;;
4309;SDS011;2168;53.576;9.980;2022-12-07T03:06:49;5.37;;;2.80;;
4309;SDS011;2168;53.576;9.980;2022-12-07T03:09:23;5.10;;;3.57;;
4309;SDS011;2168;53.576;9.980;2022-12-07T03:12:01;3.30;;;2.70;;
4309;SDS011;2168;53.576;9.980;2022-12-07T03:14:31;6.23;;;3.90;;
4309;SDS011;2168;53.576;9.980;2022-12-07T03:19:36;7.23;;;2.97;;
4309;SDS011;2168;53.576;9.980;2022-12-07T03:22:03;3.13;;;2.73;;
4309;SDS011;2168;53.576;9.980;2022-12-07T03:24:31;4.40;;;2.00;;
4309;SDS011;2168;53.576;9.980;2022-12-07T03:27:03;4.47;;;2.20;;
4309;SDS011;2168;53.576;9.980;2022-12-07T03:30:16;3.30;;;1.60;;
4309;SDS011;2168;53.576;9.980;2022-12-07T03:32:16;1.60;;;1.50;;
4309;SDS011;2168;53.576;9.980;2022-12-07T03:37:56;2.70;;;1.43;;
4309;SDS011;2168;53.576;9.980;2022-12-07T03:42:26;1.40;;;1.30;;
4309;SDS011;2168;53.576;9.980;2022-12-07T03:44:52;2.50;;;1.37;;
4309;SDS011;2168;53.576;9.980;2022-12-07T03:47:24;3.87;;;1.30;;
4309;SDS011;2168;53.576;9.980;2022-12-07T03:49:53;6.17;;;1.57;;
4309;SDS011;2168;53.576;9.980;2022-12-07T03:54:52;2.90;;;1.20;;
4309;SDS011;2168;53.576;9.980;2022-12-07T03:57:18;4.73;;;1.60;;
4309;SDS011;2168;53.576;9.980;2022-12-07T03:59:43;3.37;;;1.00;;
4309;SDS011;2168;53.576;9.980;2022-12-07T04:02:11;2.10;;;1.33;;
4309;SDS011;2168;53.576;9.980;2022-12-07T04:04:37;2.13;;;1.50;;
4309;SDS011;2168;53.576;9.980;2022-12-07T04:07:02;1.90;;;1.20;;
4309;SDS011;2168;53.576;9.980;2022-12-07T04:09:27;5.70;;;1.63;;
4309;SDS011;2168;53.576;9.980;2022-12-07T04:11:53;1.33;;;1.23;;
4309;SDS011;2168;53.576;9.980;2022-12-07T04:14:18;2.10;;;1.10;;
4309;SDS011;2168;53.576;9.980;2022-12-07T04:16:54;2.30;;;1.13;;
4309;SDS011;2168;53.576;9.980;2022-12-07T04:19:22;2.00;;;1.17;;
4309;SDS011;2168;53.576;9.980;2022-12-07T04:21:47;1.27;;;1.17;;
4309;SDS011;2168;53.576;9.980;2022-12-07T04:24:14;6.50;;;2.20;;
4309;SDS011;2168;53.576;9.980;2022-12-07T04:26:39;2.03;;;1.50;;
4309;SDS011;2168;53.576;9.980;2022-12-07T04:29:04;1.90;;;1.70;;
4309;SDS011;2168;53.576;9.980;2022-12-07T04:31:30;1.73;;;1.47;;
4309;SDS011;2168;53.576;9.980;2022-12-07T04:33:55;2.60;;;1.40;;
4309;SDS011;2168;53.576;9.980;2022-12-07T04:36:20;3.43;;;1.50;;
4309;SDS011;2168;53.576;9.980;2022-12-07T04:38:46;1.40;;;1.30;;
4309;SDS011;2168;53.576;9.980;2022-12-07T04:41:11;1.87;;;1.67;;
4309;SDS011;2168;53.576;9.980;2022-12-07T04:43:37;2.70;;;1.40;;
4309;SDS011;2168;53.576;9.980;2022-12-07T04:46:02;1.97;;;1.40;;
4309;SDS011;2168;53.576;9.980;2022-12-07T04:48:28;2.10;;;1.60;;
4309;SDS011;2168;53.576;9.980;2022-12-07T04:50:53;5.60;;;1.73;;
4309;SDS011;2168;53.576;9.980;2022-12-07T04:53:18;6.50;;;1.40;;
4309;SDS011;2168;53.576;9.980;2022-12-07T04:55:44;2.40;;;1.50;;
4309;SDS011;2168;53.576;9.980;2022-12-07T04:58:09;2.77;;;1.43;;
4309;SDS011;2168;53.576;9.980;2022-12-07T05:00:34;3.43;;;2.50;;
4309;SDS011;2168;53.576;9.980;2022-12-07T05:02:59;3.77;;;2.00;;
4309;SDS011;2168;53.576;9.980;2022-12-07T05:05:25;2.50;;;1.53;;
4309;SDS011;2168;53.576;9.980;2022-12-07T05:07:50;4.33;;;1.80;;
4309;SDS011;2168;53.576;9.980;2022-12-07T05:10:15;3.70;;;1.47;;
4309;SDS011;2168;53.576;9.980;2022-12-07T05:12:41;3.00;;;1.60;;
4309;SDS011;2168;53.576;9.980;2022-12-07T05:15:06;3.10;;;1.80;;
4309;SDS011;2168;53.576;9.980;2022-12-07T05:17:31;2.60;;;1.90;;
4309;SDS011;2168;53.576;9.980;2022-12-07T05:19:57;2.03;;;1.83;;
4309;SDS011;2168;53.576;9.980;2022-12-07T05:22:22;3.40;;;1.90;;
4309;SDS011;2168;53.576;9.980;2022-12-07T05:24:47;4.93;;;2.30;;
4309;SDS011;2168;53.576;9.980;2022-12-07T05:27:12;3.50;;;2.10;;
4309;SDS011;2168;53.576;9.980;2022-12-07T05:29:37;2.50;;;2.30;;
4309;SDS011;2168;53.576;9.980;2022-12-07T05:32:03;3.70;;;2.33;;
4309;SDS011;2168;53.576;9.980;2022-12-07T05:34:28;2.23;;;1.70;;
4309;SDS011;2168;53.576;9.980;2022-12-07T05:36:53;3.00;;;2.00;;
4309;SDS011;2168;53.576;9.980;2022-12-07T05:39:18;3.70;;;2.40;;
4309;SDS011;2168;53.576;9.980;2022-12-07T05:41:44;3.73;;;2.30;;
4309;SDS011;2168;53.576;9.980;2022-12-07T05:44:27;2.90;;;2.13;;
4309;SDS011;2168;53.576;9.980;2022-12-07T05:46:52;4.70;;;2.23;;
4309;SDS011;2168;53.576;9.980;2022-12-07T05:49:18;2.47;;;2.27;;
4309;SDS011;2168;53.576;9.980;2022-12-07T05:51:43;2.77;;;1.67;;
4309;SDS011;2168;53.576;9.980;2022-12-07T05:54:08;1.77;;;1.67;;
4309;SDS011;2168;53.576;9.980;2022-12-07T05:56:34;3.20;;;1.67;;
4309;SDS011;2168;53.576;9.980;2022-12-07T05:58:59;2.97;;;2.00;;
4309;SDS011;2168;53.576;9.980;2022-12-07T06:01:43;2.70;;;1.47;;
4309;SDS011;2168;53.576;9.980;2022-12-07T06:04:08;2.93;;;2.10;;
4309;SDS011;2168;53.576;9.980;2022-12-07T06:06:33;1.90;;;1.73;;
4309;SDS011;2168;53.576;9.980;2022-12-07T06:08:59;5.90;;;2.30;;
4309;SDS011;2168;53.576;9.980;2022-12-07T06:11:24;2.30;;;1.70;;
4309;SDS011;2168;53.576;9.980;2022-12-07T06:14:08;3.10;;;2.00;;
4309;SDS011;2168;53.576;9.980;2022-12-07T06:16:33;4.67;;;2.13;;
4309;SDS011;2168;53.576;9.980;2022-12-07T06:18:58;3.13;;;1.80;;
4309;SDS011;2168;53.576;9.980;2022-12-07T06:21:24;3.20;;;2.10;;
4309;SDS011;2168;53.576;9.980;2022-12-07T06:23:50;2.10;;;1.70;;
4309;SDS011;2168;53.576;9.980;2022-12-07T06:26:16;4.70;;;2.07;;
4309;SDS011;2168;53.576;9.980;2022-12-07T06:28:41;5.63;;;1.70;;
4309;SDS011;2168;53.576;9.980;2022-12-07T06:31:06;5.40;;;2.00;;
4309;SDS011;2168;53.576;9.980;2022-12-07T06:33:32;7.50;;;1.90;;
4309;SDS011;2168;53.576;9.980;2022-12-07T06:35:57;5.03;;;2.03;;
4309;SDS011;2168;53.576;9.980;2022-12-07T06:38:22;2.70;;;1.50;;
4309;SDS011;2168;53.576;9.980;2022-12-07T06:40:48;8.93;;;2.37;;
4309;SDS011;2168;53.576;9.980;2022-12-07T06:43:13;5.43;;;1.43;;
4309;SDS011;2168;53.576;9.980;2022-12-07T06:45:38;2.13;;;1.90;;
4309;SDS011;2168;53.576;9.980;2022-12-07T06:48:03;2.93;;;1.60;;
4309;SDS011;2168;53.576;9.980;2022-12-07T06:50:29;3.47;;;1.47;;
4309;SDS011;2168;53.576;9.980;2022-12-07T06:52:54;11.40;;;3.63;;
4309;SDS011;2168;53.576;9.980;2022-12-07T06:55:19;3.10;;;1.73;;
4309;SDS011;2168;53.576;9.980;2022-12-07T06:57:45;1.80;;;1.67;;
4309;SDS011;2168;53.576;9.980;2022-12-07T07:00:10;1.43;;;1.23;;
4309;SDS011;2168;53.576;9.980;2022-12-07T07:02:36;3.13;;;1.40;;
4309;SDS011;2168;53.576;9.980;2022-12-07T07:05:01;4.27;;;1.40;;
4309;SDS011;2168;53.576;9.980;2022-12-07T07:07:26;4.13;;;1.47;;
4309;SDS011;2168;53.576;9.980;2022-12-07T07:09:51;2.33;;;1.50;;
4309;SDS011;2168;53.576;9.980;2022-12-07T07:12:17;4.67;;;1.53;;
4309;SDS011;2168;53.576;9.980;2022-12-07T07:14:42;3.60;;;1.80;;
4309;SDS011;2168;53.576;9.980;2022-12-07T07:17:08;2.40;;;1.37;;
4309;SDS011;2168;53.576;9.980;2022-12-07T07:19:33;3.40;;;1.40;;
4309;SDS011;2168;53.576;9.980;2022-12-07T07:21:58;4.30;;;1.63;;
4309;SDS011;2168;53.576;9.980;2022-12-07T07:24:24;2.00;;;1.10;;
4309;SDS011;2168;53.576;9.980;2022-12-07T07:26:50;1.73;;;1.40;;
4309;SDS011;2168;53.576;9.980;2022-12-07T07:29:15;4.37;;;1.43;;
4309;SDS011;2168;53.576;9.980;2022-12-07T07:31:40;3.77;;;1.20;;
4309;SDS011;2168;53.576;9.980;2022-12-07T07:34:05;2.30;;;1.10;;
4309;SDS011;2168;53.576;9.980;2022-12-07T07:36:32;1.47;;;1.20;;
4309;SDS011;2168;53.576;9.980;2022-12-07T07:38:57;3.43;;;1.10;;
4309;SDS011;2168;53.576;9.980;2022-12-07T07:41:22;5.90;;;1.10;;
4309;SDS011;2168;53.576;9.980;2022-12-07T07:43:48;4.60;;;1.27;;
4309;SDS011;2168;53.576;9.980;2022-12-07T07:46:13;1.73;;;0.83;;
4309;SDS011;2168;53.576;9.980;2022-12-07T07:48:38;4.57;;;1.20;;
4309;SDS011;2168;53.576;9.980;2022-12-07T07:51:06;2.10;;;1.30;;
4309;SDS011;2168;53.576;9.980;2022-12-07T07:53:32;1.20;;;1.10;;
4309;SDS011;2168;53.576;9.980;2022-12-07T07:55:57;3.00;;;1.23;;
4309;SDS011;2168;53.576;9.980;2022-12-07T07:58:23;2.00;;;1.17;;
4309;SDS011;2168;53.576;9.980;2022-12-07T08:00:48;1.00;;;1.00;;
4309;SDS011;2168;53.576;9.980;2022-12-07T08:03:13;3.10;;;1.50;;
4309;SDS011;2168;53.576;9.980;2022-12-07T08:05:38;6.67;;;1.10;;
4309;SDS011;2168;53.576;9.980;2022-12-07T08:08:04;2.73;;;1.10;;
4309;SDS011;2168;53.576;9.980;2022-12-07T08:10:29;3.13;;;1.00;;
4309;SDS011;2168;53.576;9.980;2022-12-07T08:12:56;7.47;;;1.00;;
4309;SDS011;2168;53.576;9.980;2022-12-07T08:15:38;6.33;;;1.20;;
4309;SDS011;2168;53.576;9.980;2022-12-07T08:18:04;10.00;;;1.70;;
4309;SDS011;2168;53.576;9.980;2022-12-07T08:20:30;2.40;;;0.97;;
4309;SDS011;2168;53.576;9.980;2022-12-07T08:22:56;4.47;;;1.23;;
4309;SDS011;2168;53.576;9.980;2022-12-07T08:25:21;3.00;;;1.10;;
4309;SDS011;2168;53.576;9.980;2022-12-07T08:27:47;3.73;;;0.97;;
4309;SDS011;2168;53.576;9.980;2022-12-07T08:30:12;1.63;;;0.93;;
4309;SDS011;2168;53.576;9.980;2022-12-07T08:32:38;2.67;;;1.13;;
4309;SDS011;2168;53.576;9.980;2022-12-07T08:35:03;4.83;;;1.00;;
4309;SDS011;2168;53.576;9.980;2022-12-07T08:37:28;9.50;;;1.10;;
4309;SDS011;2168;53.576;9.980;2022-12-07T08:39:53;5.90;;;1.10;;
4309;SDS011;2168;53.576;9.980;2022-12-07T08:42:19;2.33;;;1.00;;
4309;SDS011;2168;53.576;9.980;2022-12-07T08:44:45;4.67;;;1.40;;
4309;SDS011;2168;53.576;9.980;2022-12-07T08:47:10;7.80;;;1.27;;
4309;SDS011;2168;53.576;9.980;2022-12-07T08:49:37;2.00;;;0.93;;
4309;SDS011;2168;53.576;9.980;2022-12-07T08:52:04;4.60;;;1.10;;
4309;SDS011;2168;53.576;9.980;2022-12-07T08:54:30;2.20;;;1.10;;
4309;SDS011;2168;53.576;9.980;2022-12-07T08:56:56;1.83;;;1.33;;
4309;SDS011;2168;53.576;9.980;2022-12-07T08:59:21;3.87;;;1.50;;
4309;SDS011;2168;53.576;9.980;2022-12-07T09:01:47;2.97;;;1.20;;
4309;SDS011;2168;53.576;9.980;2022-12-07T09:04:12;5.00;;;1.10;;
4309;SDS011;2168;53.576;9.980;2022-12-07T09:06:37;3.87;;;0.87;;
4309;SDS011;2168;53.576;9.980;2022-12-07T09:09:03;2.27;;;1.20;;
4309;SDS011;2168;53.576;9.980;2022-12-07T09:11:28;6.10;;;0.90;;
4309;SDS011;2168;53.576;9.980;2022-12-07T09:13:53;4.10;;;1.20;;
4309;SDS011;2168;53.576;9.980;2022-12-07T09:16:19;1.83;;;0.77;;
4309;SDS011;2168;53.576;9.980;2022-12-07T09:18:44;7.40;;;1.07;;
4309;SDS011;2168;53.576;9.980;2022-12-07T09:21:09;5.83;;;1.20;;
4309;SDS011;2168;53.576;9.980;2022-12-07T09:23:34;2.10;;;1.10;;
4309;SDS011;2168;53.576;9.980;2022-12-07T09:26:03;7.73;;;1.30;;
4309;SDS011;2168;53.576;9.980;2022-12-07T09:28:29;5.40;;;1.00;;
4309;SDS011;2168;53.576;9.980;2022-12-07T09:30:55;2.97;;;1.00;;
4309;SDS011;2168;53.576;9.980;2022-12-07T09:33:20;4.00;;;1.10;;
4309;SDS011;2168;53.576;9.980;2022-12-07T09:35:46;6.93;;;0.90;;
4309;SDS011;2168;53.576;9.980;2022-12-07T09:38:11;6.30;;;1.20;;
4309;SDS011;2168;53.576;9.980;2022-12-07T09:40:37;7.70;;;1.03;;
4309;SDS011;2168;53.576;9.980;2022-12-07T09:43:02;8.37;;;1.10;;
4309;SDS011;2168;53.576;9.980;2022-12-07T09:47:55;5.33;;;1.80;;
4309;SDS011;2168;53.576;9.980;2022-12-07T09:50:26;4.27;;;1.20;;
4309;SDS011;2168;53.576;9.980;2022-12-07T09:52:51;3.83;;;1.57;;
4309;SDS011;2168;53.576;9.980;2022-12-07T09:55:24;2.90;;;1.80;;
4309;SDS011;2168;53.576;9.980;2022-12-07T09:57:50;2.93;;;1.30;;
4309;SDS011;2168;53.576;9.980;2022-12-07T10:00:17;3.63;;;0.90;;
4309;SDS011;2168;53.576;9.980;2022-12-07T10:02:44;7.20;;;1.33;;
4309;SDS011;2168;53.576;9.980;2022-12-07T10:05:15;1.90;;;0.90;;
4309;SDS011;2168;53.576;9.980;2022-12-07T10:07:41;3.37;;;1.20;;
4309;SDS011;2168;53.576;9.980;2022-12-07T10:10:09;2.23;;;0.93;;
4309;SDS011;2168;53.576;9.980;2022-12-07T10:15:43;5.47;;;1.13;;
4309;SDS011;2168;53.576;9.980;2022-12-07T10:20:47;4.20;;;1.20;;
4309;SDS011;2168;53.576;9.980;2022-12-07T10:23:16;1.47;;;0.90;;
4309;SDS011;2168;53.576;9.980;2022-12-07T10:25:42;4.27;;;1.13;;
4309;SDS011;2168;53.576;9.980;2022-12-07T10:30:33;2.90;;;1.00;;
4309;SDS011;2168;53.576;9.980;2022-12-07T10:33:27;7.03;;;1.17;;
4309;SDS011;2168;53.576;9.980;2022-12-07T10:35:53;2.00;;;0.70;;
4309;SDS011;2168;53.576;9.980;2022-12-07T10:38:18;7.73;;;1.80;;
4309;SDS011;2168;53.576;9.980;2022-12-07T10:40:43;4.20;;;0.90;;
4309;SDS011;2168;53.576;9.980;2022-12-07T10:45:41;7.40;;;1.20;;
4309;SDS011;2168;53.576;9.980;2022-12-07T11:01:02;8.43;;;1.10;;
4309;SDS011;2168;53.576;9.980;2022-12-07T11:06:06;10.70;;;1.17;;
4309;SDS011;2168;53.576;9.980;2022-12-07T11:08:44;2.50;;;0.70;;
4309;SDS011;2168;53.576;9.980;2022-12-07T11:14:09;3.03;;;1.03;;
4309;SDS011;2168;53.576;9.980;2022-12-07T11:16:49;4.67;;;1.00;;
4309;SDS011;2168;53.576;9.980;2022-12-07T11:19:24;1.83;;;1.03;;
4309;SDS011;2168;53.576;9.980;2022-12-07T11:22:09;4.57;;;0.90;;
4309;SDS011;2168;53.576;9.980;2022-12-07T11:24:44;5.27;;;0.90;;
4309;SDS011;2168;53.576;9.980;2022-12-07T11:27:17;5.90;;;1.00;;
4309;SDS011;2168;53.576;9.980;2022-12-07T11:29:55;3.20;;;1.20;;
4309;SDS011;2168;53.576;9.980;2022-12-07T11:37:31;8.30;;;1.07;;
4309;SDS011;2168;53.576;9.980;2022-12-07T11:40:31;7.20;;;1.00;;
4309;SDS011;2168;53.576;9.980;2022-12-07T11:42:52;6.23;;;1.73;;
4309;SDS011;2168;53.576;9.980;2022-12-07T11:47:47;3.43;;;2.23;;
4309;SDS011;2168;53.576;9.980;2022-12-07T11:52:45;4.63;;;1.00;;
4309;SDS011;2168;53.576;9.980;2022-12-07T11:55:19;7.63;;;1.50;;
4309;SDS011;2168;53.576;9.980;2022-12-07T11:57:46;5.77;;;1.10;;
4309;SDS011;2168;53.576;9.980;2022-12-07T12:00:15;5.00;;;1.20;;
4309;SDS011;2168;53.576;9.980;2022-12-07T12:02:43;6.10;;;1.37;;
4309;SDS011;2168;53.576;9.980;2022-12-07T12:05:16;3.43;;;1.00;;
4309;SDS011;2168;53.576;9.980;2022-12-07T12:07:42;4.77;;;0.90;;
4309;SDS011;2168;53.576;9.980;2022-12-07T12:12:45;4.43;;;1.23;;
4309;SDS011;2168;53.576;9.980;2022-12-07T12:23:16;10.33;;;1.60;;
4309;SDS011;2168;53.576;9.980;2022-12-07T12:25:46;8.00;;;1.10;;
4309;SDS011;2168;53.576;9.980;2022-12-07T12:31:07;4.13;;;1.20;;
4309;SDS011;2168;53.576;9.980;2022-12-07T12:33:34;5.30;;;1.87;;
4309;SDS011;2168;53.576;9.980;2022-12-07T12:46:58;6.03;;;1.03;;
4309;SDS011;2168;53.576;9.980;2022-12-07T12:54:18;4.28;;;1.15;;
4309;SDS011;2168;53.576;9.980;2022-12-07T12:59:22;7.30;;;1.40;;
4309;SDS011;2168;53.576;9.980;2022-12-07T13:01:48;7.83;;;1.17;;
4309;SDS011;2168;53.576;9.980;2022-12-07T13:04:16;7.87;;;1.40;;
4309;SDS011;2168;53.576;9.980;2022-12-07T13:06:42;5.23;;;1.30;;
4309;SDS011;2168;53.576;9.980;2022-12-07T13:09:17;4.30;;;1.37;;
4309;SDS011;2168;53.576;9.980;2022-12-07T13:11:44;3.23;;;1.10;;
4309;SDS011;2168;53.576;9.980;2022-12-07T13:16:53;3.83;;;1.50;;
4309;SDS011;2168;53.576;9.980;2022-12-07T13:22:03;4.23;;;1.20;;
4309;SDS011;2168;53.576;9.980;2022-12-07T13:24:28;4.70;;;1.30;;
4309;SDS011;2168;53.576;9.980;2022-12-07T13:26:56;5.10;;;1.33;;
4309;SDS011;2168;53.576;9.980;2022-12-07T13:29:21;8.40;;;1.13;;
4309;SDS011;2168;53.576;9.980;2022-12-07T13:31:51;5.47;;;1.30;;
4309;SDS011;2168;53.576;9.980;2022-12-07T13:37:27;12.13;;;1.10;;
4309;SDS011;2168;53.576;9.980;2022-12-07T13:39:57;3.03;;;1.50;;
4309;SDS011;2168;53.576;9.980;2022-12-07T13:44:51;5.80;;;1.07;;
4309;SDS011;2168;53.576;9.980;2022-12-07T13:49:49;4.97;;;1.10;;
4309;SDS011;2168;53.576;9.980;2022-12-07T13:54:47;2.83;;;0.70;;
4309;SDS011;2168;53.576;9.980;2022-12-07T13:57:14;5.83;;;1.00;;
4309;SDS011;2168;53.576;9.980;2022-12-07T13:59:39;7.83;;;1.10;;
4309;SDS011;2168;53.576;9.980;2022-12-07T14:04:45;2.93;;;0.80;;
4309;SDS011;2168;53.576;9.980;2022-12-07T14:07:27;4.73;;;0.80;;
4309;SDS011;2168;53.576;9.980;2022-12-07T14:09:53;4.07;;;1.00;;
4309;SDS011;2168;53.576;9.980;2022-12-07T14:12:19;9.40;;;1.00;;
4309;SDS011;2168;53.576;9.980;2022-12-07T14:14:46;7.50;;;1.27;;
4309;SDS011;2168;53.576;9.980;2022-12-07T14:17:16;6.50;;;1.07;;
4309;SDS011;2168;53.576;9.980;2022-12-07T14:22:07;3.27;;;1.20;;
4309;SDS011;2168;53.576;9.980;2022-12-07T14:24:43;1.20;;;1.20;;
4309;SDS011;2168;53.576;9.980;2022-12-07T14:27:21;8.13;;;1.43;;
4309;SDS011;2168;53.576;9.980;2022-12-07T14:29:47;3.60;;;1.03;;
4309;SDS011;2168;53.576;9.980;2022-12-07T14:32:20;1.63;;;0.90;;
4309;SDS011;2168;53.576;9.980;2022-12-07T14:34:54;9.10;;;1.27;;
4309;SDS011;2168;53.576;9.980;2022-12-07T14:37:19;4.13;;;1.20;;
4309;SDS011;2168;53.576;9.980;2022-12-07T14:39:44;2.20;;;0.80;;
4309;SDS011;2168;53.576;9.980;2022-12-07T14:42:10;2.33;;;0.70;;
4309;SDS011;2168;53.576;9.980;2022-12-07T14:44:35;2.10;;;0.80;;
4309;SDS011;2168;53.576;9.980;2022-12-07T14:47:00;2.27;;;0.70;;
4309;SDS011;2168;53.576;9.980;2022-12-07T14:49:25;2.33;;;0.90;;
4309;SDS011;2168;53.576;9.980;2022-12-07T14:51:50;1.87;;;0.80;;
4309;SDS011;2168;53.576;9.980;2022-12-07T14:54:17;3.03;;;0.80;;
4309;SDS011;2168;53.576;9.980;2022-12-07T14:56:43;3.23;;;1.00;;
4309;SDS011;2168;53.576;9.980;2022-12-07T14:59:09;1.07;;;1.00;;
4309;SDS011;2168;53.576;9.980;2022-12-07T15:01:35;5.00;;;1.07;;
4309;SDS011;2168;53.576;9.980;2022-12-07T15:04:00;3.30;;;1.47;;
4309;SDS011;2168;53.576;9.980;2022-12-07T15:06:25;5.70;;;1.10;;
4309;SDS011;2168;53.576;9.980;2022-12-07T15:08:50;4.57;;;1.03;;
4309;SDS011;2168;53.576;9.980;2022-12-07T15:11:16;7.60;;;1.23;;
4309;SDS011;2168;53.576;9.980;2022-12-07T15:13:42;3.30;;;0.80;;
4309;SDS011;2168;53.576;9.980;2022-12-07T15:16:26;5.03;;;1.10;;
4309;SDS011;2168;53.576;9.980;2022-12-07T15:18:51;5.93;;;1.20;;
4309;SDS011;2168;53.576;9.980;2022-12-07T15:21:16;6.83;;;1.27;;
4309;SDS011;2168;53.576;9.980;2022-12-07T15:23:41;3.27;;;1.30;;
4309;SDS011;2168;53.576;9.980;2022-12-07T15:26:07;3.50;;;1.13;;
4309;SDS011;2168;53.576;9.980;2022-12-07T15:28:32;3.63;;;1.10;;
4309;SDS011;2168;53.576;9.980;2022-12-07T15:30:58;3.27;;;1.00;;
4309;SDS011;2168;53.576;9.980;2022-12-07T15:33:23;7.20;;;1.33;;
4309;SDS011;2168;53.576;9.980;2022-12-07T15:35:48;3.37;;;0.87;;
4309;SDS011;2168;53.576;9.980;2022-12-07T15:38:13;3.80;;;1.20;;
4309;SDS011;2168;53.576;9.980;2022-12-07T15:40:39;2.30;;;0.87;;
4309;SDS011;2168;53.576;9.980;2022-12-07T15:43:04;4.17;;;1.40;;
4309;SDS011;2168;53.576;9.980;2022-12-07T15:45:30;3.87;;;1.27;;
4309;SDS011;2168;53.576;9.980;2022-12-07T15:47:55;8.03;;;1.00;;
4309;SDS011;2168;53.576;9.980;2022-12-07T15:50:21;7.43;;;1.20;;
4309;SDS011;2168;53.576;9.980;2022-12-07T15:52:46;3.90;;;1.60;;
4309;SDS011;2168;53.576;9.980;2022-12-07T15:55:11;2.40;;;1.20;;
4309;SDS011;2168;53.576;9.980;2022-12-07T15:57:37;4.17;;;1.27;;
4309;SDS011;2168;53.576;9.980;2022-12-07T16:00:03;9.93;;;1.50;;
4309;SDS011;2168;53.576;9.980;2022-12-07T16:02:29;2.50;;;0.80;;
4309;SDS011;2168;53.576;9.980;2022-12-07T16:04:54;1.70;;;1.33;;
4309;SDS011;2168;53.576;9.980;2022-12-07T16:07:19;1.00;;;0.90;;
4309;SDS011;2168;53.576;9.980;2022-12-07T16:09:45;4.27;;;1.20;;
4309;SDS011;2168;53.576;9.980;2022-12-07T16:12:10;7.07;;;1.80;;
4309;SDS011;2168;53.576;9.980;2022-12-07T16:14:36;9.43;;;1.60;;
4309;SDS011;2168;53.576;9.980;2022-12-07T16:17:02;4.17;;;2.30;;
4309;SDS011;2168;53.576;9.980;2022-12-07T16:19:29;1.83;;;1.43;;
4309;SDS011;2168;53.576;9.980;2022-12-07T16:21:54;3.60;;;1.40;;
4309;SDS011;2168;53.576;9.980;2022-12-07T16:24:19;7.80;;;1.80;;
4309;SDS011;2168;53.576;9.980;2022-12-07T16:26:45;3.23;;;2.03;;
4309;SDS011;2168;53.576;9.980;2022-12-07T16:29:13;3.33;;;1.83;;
4309;SDS011;2168;53.576;9.980;2022-12-07T16:31:38;3.60;;;1.50;;
4309;SDS011;2168;53.576;9.980;2022-12-07T16:34:04;5.20;;;1.73;;
4309;SDS011;2168;53.576;9.980;2022-12-07T16:36:29;8.13;;;1.73;;
4309;SDS011;2168;53.576;9.980;2022-12-07T16:38:54;3.70;;;1.83;;
4309;SDS011;2168;53.576;9.980;2022-12-07T16:41:20;4.70;;;2.27;;
4309;SDS011;2168;53.576;9.980;2022-12-07T16:43:45;3.13;;;1.90;;
4309;SDS011;2168;53.576;9.980;2022-12-07T16:46:11;5.37;;;1.93;;
4309;SDS011;2168;53.576;9.980;2022-12-07T16:48:36;3.73;;;1.80;;
4309;SDS011;2168;53.576;9.980;2022-12-07T16:51:06;4.13;;;1.63;;
4309;SDS011;2168;53.576;9.980;2022-12-07T16:53:31;2.67;;;1.50;;
4309;SDS011;2168;53.576;9.980;2022-12-07T16:55:56;7.73;;;1.60;;
4309;SDS011;2168;53.576;9.980;2022-12-07T16:58:21;3.20;;;1.73;;
4309;SDS011;2168;53.576;9.980;2022-12-07T17:00:47;4.00;;;1.17;;
4309;SDS011;2168;53.576;9.980;2022-12-07T17:03:13;4.23;;;1.33;;
4309;SDS011;2168;53.576;9.980;2022-12-07T17:05:39;4.57;;;1.43;;
4309;SDS011;2168;53.576;9.980;2022-12-07T17:08:04;9.80;;;3.07;;
4309;SDS011;2168;53.576;9.980;2022-12-07T17:10:29;5.70;;;1.87;;
4309;SDS011;2168;53.576;9.980;2022-12-07T17:12:55;3.50;;;1.40;;